sensor_id;sensor_type;location;lat;lon;timestamp;pressure;altitude;pressure_sealevel;temperature;humidity
5879;BME280;2965;42.640;23.370;2022-12-16T05:00:45;94115.19;;;4.41;100.00
5879;BME280;2965;42.640;23.370;2022-12-16T05:03:30;94119.25;;;4.43;100.00
5879;BME280;2965;42.640;23.370;2022-12-16T05:06:15;94112.63;;;4.49;100.00
5879;BME280;2965;42.640;23.370;2022-12-16T05:08:59;94134.00;;;4.43;100.00
5879;BME280;2965;42.640;23.370;2022-12-16T05:11:43;94129.78;;;4.50;100.00
5879;BME280;2965;42.640;23.370;2022-12-16T05:14:27;94136.56;;;4.43;100.00
5879;BME280;2965;42.640;23.370;2022-12-16T05:17:12;94139.75;;;4.37;100.00
5879;BME280;2965;42.640;23.370;2022-12-16T05:22:25;94138.16;;;4.36;100.00
5879;BME280;2965;42.640;23.370;2022-12-16T05:25:09;94133.28;;;4.33;100.00
5879;BME280;2965;42.640;23.370;2022-12-16T05:27:53;94149.34;;;4.10;100.00
5879;BME280;2965;42.640;23.370;2022-12-16T05:30:37;94136.28;;;4.20;100.00
5879;BME280;2965;42.640;23.370;2022-12-16T05:33:21;94151.56;;;4.05;100.00
5879;BME280;2965;42.640;23.370;2022-12-16T05:36:06;94129.19;;;4.22;100.00
5879;BME280;2965;42.640;23.370;2022-12-16T05:38:51;94171.97;;;4.08;100.00
5879;BME280;2965;42.640;23.370;2022-12-16T05:41:35;94183.97;;;4.09;100.00
5879;BME280;2965;42.640;23.370;2022-12-16T05:44:19;94192.69;;;4.08;100.00
5879;BME280;2965;42.640;23.370;2022-12-16T05:47:03;94168.44;;;4.09;100.00
5879;BME280;2965;42.640;23.370;2022-12-16T05:49:47;94168.53;;;4.25;100.00
5879;BME280;2965;42.640;23.370;2022-12-16T05:52:30;94168.94;;;4.39;100.00
5879;BME280;2965;42.640;23.370;2022-12-16T05:55:14;94192.47;;;4.27;100.00
5879;BME280;2965;42.640;23.370;2022-12-16T05:57:58;94155.41;;;4.27;100.00
5879;BME280;2965;42.640;23.370;2022-12-16T06:00:41;94164.06;;;4.36;100.00
5879;BME280;2965;42.640;23.370;2022-12-16T06:03:25;94158.56;;;4.39;100.00
5879;BME280;2965;42.640;23.370;2022-12-16T06:06:09;94181.81;;;4.30;100.00
5879;BME280;2965;42.640;23.370;2022-12-16T06:08:53;94196.59;;;4.12;100.00
5879;BME280;2965;42.640;23.370;2022-12-16T06:11:37;94186.59;;;4.17;100.00
5879;BME280;2965;42.640;23.370;2022-12-16T06:14:21;94203.63;;;4.02;100.00
5879;BME280;2965;42.640;23.370;2022-12-16T06:17:05;94192.00;;;4.06;100.00
5879;BME280;2965;42.640;23.370;2022-12-16T06:19:49;94182.00;;;4.11;100.00
5879;BME280;2965;42.640;23.370;2022-12-16T06:22:30;94207.91;;;4.11;100.00
5879;BME280;2965;42.640;23.370;2022-12-16T06:25:14;94218.16;;;3.95;100.00
5879;BME280;2965;42.640;23.370;2022-12-16T06:27:58;94222.09;;;4.07;100.00
5879;BME280;2965;42.640;23.370;2022-12-16T06:30:42;94216.28;;;4.05;100.00
5879;BME280;2965;42.640;23.370;2022-12-16T06:33:25;94194.59;;;4.06;100.00
5879;BME280;2965;42.640;23.370;2022-12-16T06:36:09;94194.94;;;4.03;100.00
5879;BME280;2965;42.640;23.370;2022-12-16T06:38:53;94199.31;;;4.11;100.00
5879;BME280;2965;42.640;23.370;2022-12-16T06:41:37;94209.28;;;4.23;100.00
5879;BME280;2965;42.640;23.370;2022-12-16T06:44:21;94190.88;;;4.26;100.00
5879;BME280;2965;42.640;23.370;2022-12-16T06:47:05;94204.47;;;4.28;100.00
5879;BME280;2965;42.640;23.370;2022-12-16T06:49:49;94178.44;;;4.38;100.00
5879;BME280;2965;42.640;23.370;2022-12-16T06:52:33;94183.78;;;4.37;100.00
5879;BME280;2965;42.640;23.370;2022-12-16T06:55:17;94180.59;;;4.43;100.00
5879;BME280;2965;42.640;23.370;2022-12-16T06:58:01;94175.50;;;4.59;100.00
5879;BME280;2965;42.640;23.370;2022-12-16T07:00:45;94161.47;;;4.70;100.00
5879;BME280;2965;42.640;23.370;2022-12-16T07:03:29;94180.59;;;4.43;100.00
5879;BME280;2965;42.640;23.370;2022-12-16T07:06:13;94159.31;;;4.57;100.00
5879;BME280;2965;42.640;23.370;2022-12-16T07:08:57;94175.06;;;4.38;100.00
5879;BME280;2965;42.640;23.370;2022-12-16T07:11:41;94189.38;;;4.50;100.00
5879;BME280;2965;42.640;23.370;2022-12-16T07:14:25;94187.00;;;4.30;100.00
5879;BME280;2965;42.640;23.370;2022-12-16T07:17:09;94199.38;;;4.45;100.00
5879;BME280;2965;42.640;23.370;2022-12-16T07:19:52;94198.53;;;4.36;100.00
5879;BME280;2965;42.640;23.370;2022-12-16T07:22:36;94186.28;;;4.46;100.00
5879;BME280;2965;42.640;23.370;2022-12-16T07:25:20;94196.84;;;4.53;100.00
5879;BME280;2965;42.640;23.370;2022-12-16T07:28:04;94178.41;;;4.64;100.00
5879;BME280;2965;42.640;23.370;2022-12-16T07:30:48;94192.47;;;4.53;100.00
5879;BME280;2965;42.640;23.370;2022-12-16T07:33:32;94201.34;;;4.51;100.00
5879;BME280;2965;42.640;23.370;2022-12-16T07:36:16;94182.28;;;4.60;100.00
5879;BME280;2965;42.640;23.370;2022-12-16T07:39:00;94190.09;;;4.68;100.00
5879;BME280;2965;42.640;23.370;2022-12-16T07:41:44;94182.38;;;4.76;100.00
5879;BME280;2965;42.640;23.370;2022-12-16T07:44:28;94185.94;;;4.75;100.00
5879;BME280;2965;42.640;23.370;2022-12-16T07:47:11;94185.13;;;4.75;100.00
5879;BME280;2965;42.640;23.370;2022-12-16T07:49:55;94202.13;;;4.69;100.00
5879;BME280;2965;42.640;23.370;2022-12-16T07:52:39;94202.81;;;4.79;100.00
5879;BME280;2965;42.640;23.370;2022-12-16T07:55:23;94199.09;;;4.90;100.00
5879;BME280;2965;42.640;23.370;2022-12-16T07:58:08;94193.41;;;4.87;100.00
5879;BME280;2965;42.640;23.370;2022-12-16T08:00:52;94217.22;;;4.82;100.00
5879;BME280;2965;42.640;23.370;2022-12-16T08:03:36;94217.75;;;4.94;100.00
5879;BME280;2965;42.640;23.370;2022-12-16T08:06:20;94209.69;;;4.97;100.00
5879;BME280;2965;42.640;23.370;2022-12-16T08:09:04;94230.91;;;5.00;100.00
5879;BME280;2965;42.640;23.370;2022-12-16T08:11:59;94233.78;;;4.89;100.00
5879;BME280;2965;42.640;23.370;2022-12-16T08:14:43;94230.84;;;4.84;100.00
5879;BME280;2965;42.640;23.370;2022-12-16T08:17:26;94240.06;;;4.87;100.00
5879;BME280;2965;42.640;23.370;2022-12-16T08:20:10;94243.22;;;4.98;100.00
5879;BME280;2965;42.640;23.370;2022-12-16T08:22:54;94247.38;;;4.91;100.00
5879;BME280;2965;42.640;23.370;2022-12-16T08:25:38;94221.41;;;5.17;100.00
5879;BME280;2965;42.640;23.370;2022-12-16T08:28:22;94264.47;;;5.02;100.00
5879;BME280;2965;42.640;23.370;2022-12-16T08:31:07;94237.91;;;5.08;100.00
5879;BME280;2965;42.640;23.370;2022-12-16T08:33:50;94240.22;;;5.19;100.00
5879;BME280;2965;42.640;23.370;2022-12-16T08:36:34;94254.53;;;5.31;100.00
5879;BME280;2965;42.640;23.370;2022-12-16T08:39:18;94220.47;;;5.35;100.00
5879;BME280;2965;42.640;23.370;2022-12-16T08:42:03;94238.31;;;5.38;100.00
5879;BME280;2965;42.640;23.370;2022-12-16T08:44:46;94238.00;;;5.49;100.00
5879;BME280;2965;42.640;23.370;2022-12-16T08:47:30;94231.25;;;5.64;100.00
5879;BME280;2965;42.640;23.370;2022-12-16T08:50:14;94246.16;;;5.62;100.00
5879;BME280;2965;42.640;23.370;2022-12-16T08:52:58;94236.75;;;5.69;100.00
5879;BME280;2965;42.640;23.370;2022-12-16T08:55:42;94212.41;;;5.62;100.00
5879;BME280;2965;42.640;23.370;2022-12-16T08:58:26;94201.44;;;5.76;100.00
5879;BME280;2965;42.640;23.370;2022-12-16T09:01:10;94213.78;;;6.07;100.00
5879;BME280;2965;42.640;23.370;2022-12-16T09:03:54;94201.63;;;6.07;100.00
5879;BME280;2965;42.640;23.370;2022-12-16T09:06:38;94195.59;;;6.15;100.00
5879;BME280;2965;42.640;23.370;2022-12-16T09:09:22;94202.06;;;6.27;100.00
5879;BME280;2965;42.640;23.370;2022-12-16T09:12:05;94161.44;;;6.51;100.00
5879;BME280;2965;42.640;23.370;2022-12-16T09:14:49;94177.56;;;6.86;100.00
5879;BME280;2965;42.640;23.370;2022-12-16T09:17:33;94175.66;;;6.71;100.00
5879;BME280;2965;42.640;23.370;2022-12-16T09:20:17;94180.34;;;6.84;100.00
5879;BME280;2965;42.640;23.370;2022-12-16T09:23:02;94155.13;;;6.93;100.00
5879;BME280;2965;42.640;23.370;2022-12-16T09:25:46;94188.84;;;7.09;100.00
5879;BME280;2965;42.640;23.370;2022-12-16T09:28:30;94155.66;;;7.11;100.00
5879;BME280;2965;42.640;23.370;2022-12-16T09:31:14;94179.03;;;7.19;100.00
5879;BME280;2965;42.640;23.370;2022-12-16T09:33:58;94152.00;;;7.28;100.00
5879;BME280;2965;42.640;23.370;2022-12-16T09:36:42;94152.19;;;7.50;100.00
5879;BME280;2965;42.640;23.370;2022-12-16T09:39:26;94146.88;;;7.66;100.00
5879;BME280;2965;42.640;23.370;2022-12-16T09:45:18;94149.44;;;8.12;100.00
5879;BME280;2965;42.640;23.370;2022-12-16T09:48:30;94142.81;;;8.24;100.00
5879;BME280;2965;42.640;23.370;2022-12-16T09:51:20;94142.50;;;8.57;100.00
5879;BME280;2965;42.640;23.370;2022-12-16T09:54:04;94131.97;;;9.16;100.00
5879;BME280;2965;42.640;23.370;2022-12-16T09:56:52;94133.72;;;9.45;100.00
5879;BME280;2965;42.640;23.370;2022-12-16T09:59:39;94119.66;;;10.17;100.00
5879;BME280;2965;42.640;23.370;2022-12-16T10:02:24;94145.56;;;10.12;100.00
5879;BME280;2965;42.640;23.370;2022-12-16T10:05:11;94159.16;;;10.01;100.00
5879;BME280;2965;42.640;23.370;2022-12-16T10:08:28;94173.44;;;10.26;100.00
5879;BME280;2965;42.640;23.370;2022-12-16T10:11:22;94163.59;;;10.50;100.00
5879;BME280;2965;42.640;23.370;2022-12-16T10:48:23;94205.34;;;14.29;100.00
5879;BME280;2965;42.640;23.370;2022-12-16T10:51:18;94210.00;;;14.66;100.00
5879;BME280;2965;42.640;23.370;2022-12-16T11:00:16;94213.84;;;14.31;100.00
5879;BME280;2965;42.640;23.370;2022-12-16T11:03:21;94192.81;;;14.31;100.00
5879;BME280;2965;42.640;23.370;2022-12-16T11:06:06;94205.09;;;14.12;100.00
5879;BME280;2965;42.640;23.370;2022-12-16T11:08:50;94190.34;;;14.36;100.00
5879;BME280;2965;42.640;23.370;2022-12-16T11:11:34;94210.03;;;14.59;100.00
5879;BME280;2965;42.640;23.370;2022-12-16T11:14:24;94203.72;;;14.35;100.00
5879;BME280;2965;42.640;23.370;2022-12-16T11:17:16;94218.34;;;14.56;100.00
5879;BME280;2965;42.640;23.370;2022-12-16T11:20:22;94208.63;;;14.56;100.00
5879;BME280;2965;42.640;23.370;2022-12-16T11:23:17;94202.41;;;14.76;100.00
5879;BME280;2965;42.640;23.370;2022-12-16T11:29:12;94206.47;;;14.97;100.00
5879;BME280;2965;42.640;23.370;2022-12-16T11:32:02;94211.47;;;14.55;100.00
5879;BME280;2965;42.640;23.370;2022-12-16T11:34:52;94207.53;;;15.32;100.00
5879;BME280;2965;42.640;23.370;2022-12-16T11:37:40;94211.31;;;15.73;100.00
5879;BME280;2965;42.640;23.370;2022-12-16T11:40:25;94220.81;;;15.93;100.00
5879;BME280;2965;42.640;23.370;2022-12-16T11:43:12;94210.47;;;15.91;100.00
5879;BME280;2965;42.640;23.370;2022-12-16T11:46:00;94204.19;;;15.92;100.00
5879;BME280;2965;42.640;23.370;2022-12-16T11:48:51;94208.91;;;16.02;100.00
5879;BME280;2965;42.640;23.370;2022-12-16T11:51:38;94209.94;;;17.20;100.00
5879;BME280;2965;42.640;23.370;2022-12-16T11:54:26;94210.88;;;17.77;100.00
5879;BME280;2965;42.640;23.370;2022-12-16T11:57:22;94201.44;;;17.81;100.00
5879;BME280;2965;42.640;23.370;2022-12-16T12:00:13;94200.84;;;17.79;100.00
5879;BME280;2965;42.640;23.370;2022-12-16T12:03:04;94204.88;;;17.70;99.99
5879;BME280;2965;42.640;23.370;2022-12-16T12:09:17;94187.88;;;17.66;100.00
5879;BME280;2965;42.640;23.370;2022-12-16T12:15:59;94172.00;;;17.66;99.54
5879;BME280;2965;42.640;23.370;2022-12-16T12:18:51;94187.34;;;17.93;100.00
5879;BME280;2965;42.640;23.370;2022-12-16T12:25:15;94171.22;;;17.77;100.00
5879;BME280;2965;42.640;23.370;2022-12-16T12:34:05;94149.00;;;18.07;98.72
5879;BME280;2965;42.640;23.370;2022-12-16T12:40:15;94162.59;;;18.95;94.09
5879;BME280;2965;42.640;23.370;2022-12-16T12:43:06;94166.00;;;18.11;94.45
5879;BME280;2965;42.640;23.370;2022-12-16T12:49:05;94167.53;;;18.69;92.73
5879;BME280;2965;42.640;23.370;2022-12-16T12:57:35;94171.31;;;18.73;94.09
5879;BME280;2965;42.640;23.370;2022-12-16T13:00:22;94175.63;;;19.57;88.89
5879;BME280;2965;42.640;23.370;2022-12-16T13:03:31;94180.25;;;20.10;80.53
5879;BME280;2965;42.640;23.370;2022-12-16T13:06:18;94186.34;;;20.11;78.94
5879;BME280;2965;42.640;23.370;2022-12-16T13:09:20;94187.53;;;20.25;77.17
5879;BME280;2965;42.640;23.370;2022-12-16T13:20:49;94167.91;;;19.55;80.68
5879;BME280;2965;42.640;23.370;2022-12-16T13:23:38;94167.53;;;19.08;85.35
5879;BME280;2965;42.640;23.370;2022-12-16T13:26:24;94161.50;;;18.90;86.14
5879;BME280;2965;42.640;23.370;2022-12-16T13:29:28;94163.88;;;18.92;86.86
5879;BME280;2965;42.640;23.370;2022-12-16T13:32:19;94140.28;;;18.57;89.00
5879;BME280;2965;42.640;23.370;2022-12-16T13:37:59;94140.84;;;17.68;100.00
5879;BME280;2965;42.640;23.370;2022-12-16T13:40:55;94153.91;;;18.15;97.63
5879;BME280;2965;42.640;23.370;2022-12-16T13:43:58;94154.69;;;17.99;97.71
5879;BME280;2965;42.640;23.370;2022-12-16T13:46:50;94158.50;;;18.20;96.83
5879;BME280;2965;42.640;23.370;2022-12-16T14:43:12;94204.59;;;15.41;100.00
5879;BME280;2965;42.640;23.370;2022-12-16T14:45:58;94200.03;;;15.48;100.00
5879;BME280;2965;42.640;23.370;2022-12-16T14:48:46;94198.13;;;15.18;100.00
5879;BME280;2965;42.640;23.370;2022-12-16T14:54:20;94171.91;;;14.36;100.00
5879;BME280;2965;42.640;23.370;2022-12-16T14:57:13;94161.91;;;14.20;100.00
5879;BME280;2965;42.640;23.370;2022-12-16T15:00:19;94178.03;;;13.99;100.00
5879;BME280;2965;42.640;23.370;2022-12-16T15:03:12;94169.94;;;13.69;100.00
5879;BME280;2965;42.640;23.370;2022-12-16T15:05:57;94174.53;;;13.80;100.00
5879;BME280;2965;42.640;23.370;2022-12-16T15:08:51;94170.50;;;13.77;100.00
5879;BME280;2965;42.640;23.370;2022-12-16T15:11:39;94165.41;;;13.44;100.00
5879;BME280;2965;42.640;23.370;2022-12-16T15:14:29;94171.69;;;13.36;100.00
5879;BME280;2965;42.640;23.370;2022-12-16T15:17:21;94165.50;;;13.24;100.00
5879;BME280;2965;42.640;23.370;2022-12-16T15:20:15;94153.00;;;13.06;100.00
5879;BME280;2965;42.640;23.370;2022-12-16T15:23:00;94154.63;;;13.01;100.00
5879;BME280;2965;42.640;23.370;2022-12-16T15:25:48;94147.00;;;12.93;100.00
5879;BME280;2965;42.640;23.370;2022-12-16T15:28:39;94158.47;;;12.92;100.00
5879;BME280;2965;42.640;23.370;2022-12-16T15:31:35;94162.13;;;12.91;100.00
5879;BME280;2965;42.640;23.370;2022-12-16T15:37:15;94170.41;;;12.87;100.00
5879;BME280;2965;42.640;23.370;2022-12-16T15:40:01;94167.56;;;12.96;100.00
5879;BME280;2965;42.640;23.370;2022-12-16T15:42:49;94171.59;;;12.92;100.00
5879;BME280;2965;42.640;23.370;2022-12-16T15:45:34;94163.13;;;12.90;100.00
5879;BME280;2965;42.640;23.370;2022-12-16T15:48:25;94183.75;;;12.93;100.00
5879;BME280;2965;42.640;23.370;2022-12-16T15:54:17;94196.66;;;12.87;100.00
5879;BME280;2965;42.640;23.370;2022-12-16T15:57:02;94170.81;;;12.98;100.00
5879;BME280;2965;42.640;23.370;2022-12-16T15:59:56;94182.91;;;12.92;100.00
5879;BME280;2965;42.640;23.370;2022-12-16T16:02:45;94190.19;;;12.83;100.00
5879;BME280;2965;42.640;23.370;2022-12-16T16:05:29;94181.31;;;12.84;100.00
5879;BME280;2965;42.640;23.370;2022-12-16T16:08:13;94194.63;;;12.90;100.00
5879;BME280;2965;42.640;23.370;2022-12-16T16:10:58;94187.38;;;12.78;100.00
5879;BME280;2965;42.640;23.370;2022-12-16T16:13:41;94195.06;;;12.73;100.00
5879;BME280;2965;42.640;23.370;2022-12-16T16:16:25;94204.78;;;12.53;100.00
5879;BME280;2965;42.640;23.370;2022-12-16T16:19:22;94199.94;;;12.50;100.00
5879;BME280;2965;42.640;23.370;2022-12-16T16:22:10;94203.34;;;12.57;100.00
5879;BME280;2965;42.640;23.370;2022-12-16T16:24:54;94206.38;;;12.54;100.00
5879;BME280;2965;42.640;23.370;2022-12-16T16:27:38;94200.31;;;12.47;100.00
5879;BME280;2965;42.640;23.370;2022-12-16T16:30:22;94208.41;;;12.45;100.00
5879;BME280;2965;42.640;23.370;2022-12-16T16:33:14;94218.28;;;12.43;100.00
5879;BME280;2965;42.640;23.370;2022-12-16T16:35:58;94197.31;;;12.36;100.00
5879;BME280;2965;42.640;23.370;2022-12-16T16:38:42;94196.09;;;12.46;100.00
5879;BME280;2965;42.640;23.370;2022-12-16T16:41:26;94204.78;;;12.26;100.00
5879;BME280;2965;42.640;23.370;2022-12-16T16:44:10;94196.28;;;12.24;100.00
5879;BME280;2965;42.640;23.370;2022-12-16T16:46:55;94216.44;;;12.17;100.00
5879;BME280;2965;42.640;23.370;2022-12-16T16:49:42;94194.69;;;12.23;100.00
5879;BME280;2965;42.640;23.370;2022-12-16T16:52:28;94212.41;;;12.34;100.00
5879;BME280;2965;42.640;23.370;2022-12-16T16:55:15;94196.28;;;12.24;100.00
5879;BME280;2965;42.640;23.370;2022-12-16T16:58:13;94206.97;;;12.29;100.00
5879;BME280;2965;42.640;23.370;2022-12-16T17:00:58;94195.47;;;12.37;100.00
5879;BME280;2965;42.640;23.370;2022-12-16T17:03:42;94186.63;;;12.31;100.00
5879;BME280;2965;42.640;23.370;2022-12-16T17:06:26;94205.97;;;12.30;100.00
5879;BME280;2965;42.640;23.370;2022-12-16T17:15:36;94197.09;;;12.31;100.00
5879;BME280;2965;42.640;23.370;2022-12-16T17:18:20;94179.75;;;12.37;100.00
5879;BME280;2965;42.640;23.370;2022-12-16T17:21:04;94187.41;;;12.32;100.00
5879;BME280;2965;42.640;23.370;2022-12-16T17:23:49;94176.91;;;12.25;100.00
5879;BME280;2965;42.640;23.370;2022-12-16T17:26:33;94189.03;;;12.26;100.00
5879;BME280;2965;42.640;23.370;2022-12-16T17:29:23;94183.78;;;12.26;100.00
5879;BME280;2965;42.640;23.370;2022-12-16T17:32:08;94183.78;;;12.26;100.00
5879;BME280;2965;42.640;23.370;2022-12-16T17:34:52;94182.97;;;12.32;100.00
5879;BME280;2965;42.640;23.370;2022-12-16T17:37:36;94190.66;;;12.41;100.00
5879;BME280;2965;42.640;23.370;2022-12-16T17:40:20;94178.31;;;12.21;100.00
5879;BME280;2965;42.640;23.370;2022-12-16T17:43:04;94174.69;;;12.16;100.00
5879;BME280;2965;42.640;23.370;2022-12-16T17:46:15;94182.59;;;12.22;100.00
5879;BME280;2965;42.640;23.370;2022-12-16T17:48:59;94174.91;;;12.21;100.00
5879;BME280;2965;42.640;23.370;2022-12-16T17:51:43;94166.84;;;12.16;100.00
5879;BME280;2965;42.640;23.370;2022-12-16T17:54:27;94179.72;;;12.17;100.00
5879;BME280;2965;42.640;23.370;2022-12-16T17:57:11;94175.09;;;12.12;100.00
5879;BME280;2965;42.640;23.370;2022-12-16T17:59:55;94198.06;;;12.04;100.00
5879;BME280;2965;42.640;23.370;2022-12-16T18:02:39;94206.59;;;11.58;100.00
5879;BME280;2965;42.640;23.370;2022-12-16T18:05:23;94199.66;;;11.37;100.00
5879;BME280;2965;42.640;23.370;2022-12-16T18:08:07;94196.47;;;11.42;100.00
5879;BME280;2965;42.640;23.370;2022-12-16T18:10:52;94204.56;;;11.53;100.00
5879;BME280;2965;42.640;23.370;2022-12-16T18:13:36;94192.81;;;11.36;100.00
5879;BME280;2965;42.640;23.370;2022-12-16T18:16:20;94184.50;;;11.19;100.00
5879;BME280;2965;42.640;23.370;2022-12-16T18:19:04;94193.34;;;11.18;100.00
5879;BME280;2965;42.640;23.370;2022-12-16T18:21:48;94196.34;;;11.15;100.00
5879;BME280;2965;42.640;23.370;2022-12-16T18:24:32;94189.88;;;11.11;100.00
5879;BME280;2965;42.640;23.370;2022-12-16T18:27:16;94205.50;;;10.98;100.00
5879;BME280;2965;42.640;23.370;2022-12-16T18:30:00;94198.13;;;10.73;100.00
5879;BME280;2965;42.640;23.370;2022-12-16T18:32:44;94193.00;;;10.86;100.00
5879;BME280;2965;42.640;23.370;2022-12-16T18:35:28;94194.81;;;10.58;100.00
5879;BME280;2965;42.640;23.370;2022-12-16T18:38:11;94186.72;;;10.53;100.00
5879;BME280;2965;42.640;23.370;2022-12-16T18:41:03;94187.88;;;10.44;100.00
5879;BME280;2965;42.640;23.370;2022-12-16T18:43:49;94175.44;;;10.46;100.00
5879;BME280;2965;42.640;23.370;2022-12-16T18:46:33;94188.38;;;10.11;100.00
5879;BME280;2965;42.640;23.370;2022-12-16T18:49:17;94197.97;;;10.04;100.00
5879;BME280;2965;42.640;23.370;2022-12-16T18:52:01;94175.81;;;10.00;100.00
5879;BME280;2965;42.640;23.370;2022-12-16T18:54:45;94205.56;;;9.77;100.00
5879;BME280;2965;42.640;23.370;2022-12-16T18:57:29;94193.13;;;9.79;100.00
5879;BME280;2965;42.640;23.370;2022-12-16T19:00:13;94214.78;;;9.58;100.00
5879;BME280;2965;42.640;23.370;2022-12-16T19:02:57;94199.56;;;9.62;100.00
5879;BME280;2965;42.640;23.370;2022-12-16T19:05:40;94203.75;;;9.42;100.00
5879;BME280;2965;42.640;23.370;2022-12-16T19:08:24;94200.44;;;9.48;100.00
5879;BME280;2965;42.640;23.370;2022-12-16T19:11:08;94189.44;;;9.52;100.00
5879;BME280;2965;42.640;23.370;2022-12-16T19:13:52;94184.63;;;9.56;100.00
5879;BME280;2965;42.640;23.370;2022-12-16T19:37:43;94215.69;;;8.70;100.00
5879;BME280;2965;42.640;23.370;2022-12-16T19:40:26;94201.13;;;8.61;100.00
5879;BME280;2965;42.640;23.370;2022-12-16T19:43:11;94196.69;;;8.76;100.00
5879;BME280;2965;42.640;23.370;2022-12-16T19:45:55;94213.72;;;8.72;100.00
5879;BME280;2965;42.640;23.370;2022-12-16T19:48:39;94199.84;;;8.57;100.00
5879;BME280;2965;42.640;23.370;2022-12-16T19:51:23;94205.22;;;8.41;100.00
5879;BME280;2965;42.640;23.370;2022-12-16T19:54:07;94201.03;;;8.31;100.00
5879;BME280;2965;42.640;23.370;2022-12-16T19:56:51;94216.97;;;8.37;100.00
5879;BME280;2965;42.640;23.370;2022-12-16T19:59:35;94212.34;;;8.47;100.00
5879;BME280;2965;42.640;23.370;2022-12-16T20:02:19;94233.34;;;8.45;100.00
5879;BME280;2965;42.640;23.370;2022-12-16T20:05:03;94224.91;;;8.20;100.00
5879;BME280;2965;42.640;23.370;2022-12-16T20:07:47;94211.16;;;7.89;100.00
5879;BME280;2965;42.640;23.370;2022-12-16T20:10:31;94202.94;;;8.00;100.00
5879;BME280;2965;42.640;23.370;2022-12-16T20:13:15;94185.56;;;8.15;100.00
5879;BME280;2965;42.640;23.370;2022-12-16T20:16:04;94175.34;;;8.28;100.00
5879;BME280;2965;42.640;23.370;2022-12-16T20:18:48;94172.22;;;8.10;100.00
5879;BME280;2965;42.640;23.370;2022-12-16T20:21:32;94176.47;;;8.11;100.00
5879;BME280;2965;42.640;23.370;2022-12-16T20:24:16;94184.59;;;7.70;100.00
5879;BME280;2965;42.640;23.370;2022-12-16T20:27:00;94195.06;;;7.85;100.00
5879;BME280;2965;42.640;23.370;2022-12-16T20:29:44;94197.84;;;7.83;100.00
5879;BME280;2965;42.640;23.370;2022-12-16T20:32:28;94186.59;;;7.83;100.00
5879;BME280;2965;42.640;23.370;2022-12-16T20:35:12;94226.88;;;7.49;100.00
5879;BME280;2965;42.640;23.370;2022-12-16T20:37:56;94215.91;;;7.62;100.00
5879;BME280;2965;42.640;23.370;2022-12-16T20:40:40;94206.84;;;7.50;100.00
5879;BME280;2965;42.640;23.370;2022-12-16T20:43:24;94213.66;;;7.51;100.00
5879;BME280;2965;42.640;23.370;2022-12-16T20:46:09;94207.56;;;7.44;100.00
5879;BME280;2965;42.640;23.370;2022-12-16T20:48:53;94195.41;;;7.59;100.00
5879;BME280;2965;42.640;23.370;2022-12-16T20:51:37;94195.97;;;7.69;100.00
5879;BME280;2965;42.640;23.370;2022-12-16T20:54:20;94198.88;;;7.74;100.00
5879;BME280;2965;42.640;23.370;2022-12-16T20:57:04;94200.50;;;7.75;100.00
5879;BME280;2965;42.640;23.370;2022-12-16T20:59:48;94187.56;;;7.67;100.00
5879;BME280;2965;42.640;23.370;2022-12-16T21:02:32;94206.47;;;7.30;100.00
5879;BME280;2965;42.640;23.370;2022-12-16T21:05:16;94187.41;;;7.38;100.00
5879;BME280;2965;42.640;23.370;2022-12-16T21:08:00;94203.41;;;7.26;100.00
5879;BME280;2965;42.640;23.370;2022-12-16T21:10:44;94211.00;;;7.36;100.00
5879;BME280;2965;42.640;23.370;2022-12-16T21:13:28;94180.25;;;7.08;100.00
5879;BME280;2965;42.640;23.370;2022-12-16T21:16:12;94201.56;;;7.04;100.00
5879;BME280;2965;42.640;23.370;2022-12-16T21:18:56;94171.06;;;7.21;100.00
5879;BME280;2965;42.640;23.370;2022-12-16T21:21:40;94194.22;;;7.39;100.00
5879;BME280;2965;42.640;23.370;2022-12-16T21:24:24;94187.69;;;7.43;100.00
5879;BME280;2965;42.640;23.370;2022-12-16T21:27:08;94194.09;;;7.32;100.00
5879;BME280;2965;42.640;23.370;2022-12-16T21:29:52;94207.56;;;7.44;100.00
5879;BME280;2965;42.640;23.370;2022-12-16T21:32:36;94209.75;;;7.24;100.00
5879;BME280;2965;42.640;23.370;2022-12-16T21:35:20;94202.09;;;7.30;100.00
5879;BME280;2965;42.640;23.370;2022-12-16T21:38:11;94181.84;;;7.41;100.00
5879;BME280;2965;42.640;23.370;2022-12-16T21:40:55;94185.50;;;7.31;100.00
5879;BME280;2965;42.640;23.370;2022-12-16T21:43:40;94153.84;;;7.43;100.00
5879;BME280;2965;42.640;23.370;2022-12-16T21:46:24;94169.94;;;7.46;100.00
5879;BME280;2965;42.640;23.370;2022-12-16T21:49:08;94172.03;;;7.51;100.00
5879;BME280;2965;42.640;23.370;2022-12-16T21:51:52;94179.38;;;7.16;100.00
5879;BME280;2965;42.640;23.370;2022-12-16T21:54:36;94170.03;;;7.30;100.00
5879;BME280;2965;42.640;23.370;2022-12-16T21:57:20;94161.34;;;7.15;100.00
